sensor_id;sensor_type;location;lat;lon;timestamp;temperature;humidity
5352;DHT22;2698;51.454;6.736;2022-09-09T00:01:37;15.50;99.90
5352;DHT22;2698;51.454;6.736;2022-09-09T00:04:13;15.60;99.90
5352;DHT22;2698;51.454;6.736;2022-09-09T00:06:44;15.60;99.90
5352;DHT22;2698;51.454;6.736;2022-09-09T00:09:16;15.60;99.90
5352;DHT22;2698;51.454;6.736;2022-09-09T00:11:47;15.60;99.90
5352;DHT22;2698;51.454;6.736;2022-09-09T00:14:21;15.60;99.90
5352;DHT22;2698;51.454;6.736;2022-09-09T00:16:55;15.50;99.90
5352;DHT22;2698;51.454;6.736;2022-09-09T00:19:26;15.50;99.90
5352;DHT22;2698;51.454;6.736;2022-09-09T00:22:04;15.60;99.90
5352;DHT22;2698;51.454;6.736;2022-09-09T00:24:39;15.50;99.90
5352;DHT22;2698;51.454;6.736;2022-09-09T00:27:16;15.50;99.90
5352;DHT22;2698;51.454;6.736;2022-09-09T00:29:50;15.60;99.90
5352;DHT22;2698;51.454;6.736;2022-09-09T00:32:19;15.50;99.90
5352;DHT22;2698;51.454;6.736;2022-09-09T00:34:49;15.50;99.90
5352;DHT22;2698;51.454;6.736;2022-09-09T00:37:19;15.50;99.90
5352;DHT22;2698;51.454;6.736;2022-09-09T00:39:47;15.50;99.90
5352;DHT22;2698;51.454;6.736;2022-09-09T00:42:18;15.60;99.90
5352;DHT22;2698;51.454;6.736;2022-09-09T00:44:56;15.60;99.90
5352;DHT22;2698;51.454;6.736;2022-09-09T00:47:38;15.60;99.90
5352;DHT22;2698;51.454;6.736;2022-09-09T00:50:17;15.70;99.90
5352;DHT22;2698;51.454;6.736;2022-09-09T00:52:58;15.70;99.90
5352;DHT22;2698;51.454;6.736;2022-09-09T00:55:33;15.70;99.90
5352;DHT22;2698;51.454;6.736;2022-09-09T00:58:06;15.70;99.90
5352;DHT22;2698;51.454;6.736;2022-09-09T01:00:39;15.70;99.90
5352;DHT22;2698;51.454;6.736;2022-09-09T01:03:19;15.70;99.90
5352;DHT22;2698;51.454;6.736;2022-09-09T01:05:54;15.70;99.90
5352;DHT22;2698;51.454;6.736;2022-09-09T01:11:33;15.70;99.90
5352;DHT22;2698;51.454;6.736;2022-09-09T01:14:29;15.70;99.90
5352;DHT22;2698;51.454;6.736;2022-09-09T01:17:01;15.60;99.90
5352;DHT22;2698;51.454;6.736;2022-09-09T01:19:40;15.60;99.90
5352;DHT22;2698;51.454;6.736;2022-09-09T01:22:15;15.50;99.90
5352;DHT22;2698;51.454;6.736;2022-09-09T01:25:11;15.50;99.90
5352;DHT22;2698;51.454;6.736;2022-09-09T01:27:44;15.50;99.90
5352;DHT22;2698;51.454;6.736;2022-09-09T01:30:13;15.50;99.90
5352;DHT22;2698;51.454;6.736;2022-09-09T01:32:43;15.40;99.90
5352;DHT22;2698;51.454;6.736;2022-09-09T01:35:14;15.40;99.90
5352;DHT22;2698;51.454;6.736;2022-09-09T01:37:41;15.40;99.90
5352;DHT22;2698;51.454;6.736;2022-09-09T01:40:08;15.30;99.90
5352;DHT22;2698;51.454;6.736;2022-09-09T01:42:35;15.30;99.90
5352;DHT22;2698;51.454;6.736;2022-09-09T01:45:04;15.30;99.90
5352;DHT22;2698;51.454;6.736;2022-09-09T01:47:32;15.20;99.90
5352;DHT22;2698;51.454;6.736;2022-09-09T01:49:59;15.30;99.90
5352;DHT22;2698;51.454;6.736;2022-09-09T01:52:27;15.20;99.90
5352;DHT22;2698;51.454;6.736;2022-09-09T01:54:54;15.30;99.90
5352;DHT22;2698;51.454;6.736;2022-09-09T01:57:24;15.30;99.90
5352;DHT22;2698;51.454;6.736;2022-09-09T02:00:00;15.40;99.90
5352;DHT22;2698;51.454;6.736;2022-09-09T02:02:32;15.40;99.90
5352;DHT22;2698;51.454;6.736;2022-09-09T02:05:11;15.50;99.90
5352;DHT22;2698;51.454;6.736;2022-09-09T02:07:42;15.50;99.90
5352;DHT22;2698;51.454;6.736;2022-09-09T02:10:15;15.60;99.90
5352;DHT22;2698;51.454;6.736;2022-09-09T02:12:45;15.60;99.90
5352;DHT22;2698;51.454;6.736;2022-09-09T02:15:17;15.60;99.90
5352;DHT22;2698;51.454;6.736;2022-09-09T02:17:50;15.60;99.90
5352;DHT22;2698;51.454;6.736;2022-09-09T02:20:19;15.60;99.90
5352;DHT22;2698;51.454;6.736;2022-09-09T02:22:49;15.70;99.90
5352;DHT22;2698;51.454;6.736;2022-09-09T02:25:20;15.70;99.90
5352;DHT22;2698;51.454;6.736;2022-09-09T02:27:50;15.70;99.90
5352;DHT22;2698;51.454;6.736;2022-09-09T02:30:18;15.70;99.90
5352;DHT22;2698;51.454;6.736;2022-09-09T02:32:46;15.70;99.90
5352;DHT22;2698;51.454;6.736;2022-09-09T02:35:19;15.70;99.90
5352;DHT22;2698;51.454;6.736;2022-09-09T02:37:47;15.70;99.90
5352;DHT22;2698;51.454;6.736;2022-09-09T02:40:16;15.80;99.90
5352;DHT22;2698;51.454;6.736;2022-09-09T02:42:44;15.80;99.90
5352;DHT22;2698;51.454;6.736;2022-09-09T02:45:13;15.80;99.90
5352;DHT22;2698;51.454;6.736;2022-09-09T02:47:45;15.80;99.90
5352;DHT22;2698;51.454;6.736;2022-09-09T02:50:18;15.80;99.90
5352;DHT22;2698;51.454;6.736;2022-09-09T02:52:54;15.80;99.90
5352;DHT22;2698;51.454;6.736;2022-09-09T02:55:29;15.80;99.90
5352;DHT22;2698;51.454;6.736;2022-09-09T02:58:02;15.70;99.90
5352;DHT22;2698;51.454;6.736;2022-09-09T03:00:30;15.70;99.90
5352;DHT22;2698;51.454;6.736;2022-09-09T03:02:58;15.70;99.90
5352;DHT22;2698;51.454;6.736;2022-09-09T03:05:26;15.70;99.90
5352;DHT22;2698;51.454;6.736;2022-09-09T03:07:53;15.70;99.90
5352;DHT22;2698;51.454;6.736;2022-09-09T03:10:20;15.70;99.90
5352;DHT22;2698;51.454;6.736;2022-09-09T03:12:47;15.70;99.90
5352;DHT22;2698;51.454;6.736;2022-09-09T03:15:14;15.70;99.90
5352;DHT22;2698;51.454;6.736;2022-09-09T03:17:41;15.70;99.90
5352;DHT22;2698;51.454;6.736;2022-09-09T03:20:08;15.70;99.90
5352;DHT22;2698;51.454;6.736;2022-09-09T03:22:37;15.70;99.90
5352;DHT22;2698;51.454;6.736;2022-09-09T03:25:04;15.80;99.90
5352;DHT22;2698;51.454;6.736;2022-09-09T03:27:31;15.80;99.90
5352;DHT22;2698;51.454;6.736;2022-09-09T03:29:58;15.80;99.90
5352;DHT22;2698;51.454;6.736;2022-09-09T03:32:25;15.90;99.90
5352;DHT22;2698;51.454;6.736;2022-09-09T03:34:52;16.00;99.90
5352;DHT22;2698;51.454;6.736;2022-09-09T03:37:19;16.00;99.90
5352;DHT22;2698;51.454;6.736;2022-09-09T03:39:47;16.00;99.90
5352;DHT22;2698;51.454;6.736;2022-09-09T03:42:15;16.00;99.90
5352;DHT22;2698;51.454;6.736;2022-09-09T03:44:44;16.00;99.90
5352;DHT22;2698;51.454;6.736;2022-09-09T03:47:16;16.00;99.90
5352;DHT22;2698;51.454;6.736;2022-09-09T03:49:43;15.90;99.90
5352;DHT22;2698;51.454;6.736;2022-09-09T03:52:10;15.90;99.90
5352;DHT22;2698;51.454;6.736;2022-09-09T03:54:37;15.90;99.90
5352;DHT22;2698;51.454;6.736;2022-09-09T03:57:06;15.90;99.90
5352;DHT22;2698;51.454;6.736;2022-09-09T03:59:32;15.90;99.90
5352;DHT22;2698;51.454;6.736;2022-09-09T04:02:00;15.90;99.90
5352;DHT22;2698;51.454;6.736;2022-09-09T04:04:27;15.90;99.90
5352;DHT22;2698;51.454;6.736;2022-09-09T04:06:54;16.00;99.90
5352;DHT22;2698;51.454;6.736;2022-09-09T04:09:21;16.10;99.90
5352;DHT22;2698;51.454;6.736;2022-09-09T04:11:48;16.10;99.90
5352;DHT22;2698;51.454;6.736;2022-09-09T04:14:17;16.10;99.90
5352;DHT22;2698;51.454;6.736;2022-09-09T04:16:43;16.20;99.90
5352;DHT22;2698;51.454;6.736;2022-09-09T04:19:11;16.20;99.90
5352;DHT22;2698;51.454;6.736;2022-09-09T04:21:39;16.20;99.90
5352;DHT22;2698;51.454;6.736;2022-09-09T04:24:06;16.20;99.90
5352;DHT22;2698;51.454;6.736;2022-09-09T04:26:34;16.30;99.90
5352;DHT22;2698;51.454;6.736;2022-09-09T04:29:02;16.30;99.90
5352;DHT22;2698;51.454;6.736;2022-09-09T04:31:30;16.30;99.90
5352;DHT22;2698;51.454;6.736;2022-09-09T04:33:57;16.40;99.90
5352;DHT22;2698;51.454;6.736;2022-09-09T04:36:27;16.40;99.90
5352;DHT22;2698;51.454;6.736;2022-09-09T04:38:54;16.40;99.90
5352;DHT22;2698;51.454;6.736;2022-09-09T04:41:21;16.30;99.90
5352;DHT22;2698;51.454;6.736;2022-09-09T04:43:48;16.40;99.90
5352;DHT22;2698;51.454;6.736;2022-09-09T04:46:14;16.40;99.90
5352;DHT22;2698;51.454;6.736;2022-09-09T04:48:43;16.40;99.90
5352;DHT22;2698;51.454;6.736;2022-09-09T04:51:12;16.50;99.90
5352;DHT22;2698;51.454;6.736;2022-09-09T04:53:39;16.40;99.90
5352;DHT22;2698;51.454;6.736;2022-09-09T04:56:08;16.50;99.90
5352;DHT22;2698;51.454;6.736;2022-09-09T04:58:35;16.60;99.90
5352;DHT22;2698;51.454;6.736;2022-09-09T05:01:04;16.40;99.90
5352;DHT22;2698;51.454;6.736;2022-09-09T05:03:31;16.40;99.90
5352;DHT22;2698;51.454;6.736;2022-09-09T05:06:05;16.30;99.90
5352;DHT22;2698;51.454;6.736;2022-09-09T05:08:32;16.40;99.90
5352;DHT22;2698;51.454;6.736;2022-09-09T05:10:59;16.40;99.90
5352;DHT22;2698;51.454;6.736;2022-09-09T05:13:26;16.60;99.90
5352;DHT22;2698;51.454;6.736;2022-09-09T05:15:53;16.40;99.90
5352;DHT22;2698;51.454;6.736;2022-09-09T05:18:20;16.50;99.90
5352;DHT22;2698;51.454;6.736;2022-09-09T05:20:47;16.50;99.90
5352;DHT22;2698;51.454;6.736;2022-09-09T05:23:16;16.40;99.90
5352;DHT22;2698;51.454;6.736;2022-09-09T05:25:42;16.40;99.90
5352;DHT22;2698;51.454;6.736;2022-09-09T05:28:09;16.40;99.90
5352;DHT22;2698;51.454;6.736;2022-09-09T05:30:37;16.40;99.90
5352;DHT22;2698;51.454;6.736;2022-09-09T05:33:03;16.40;99.90
5352;DHT22;2698;51.454;6.736;2022-09-09T05:35:31;16.40;99.90
5352;DHT22;2698;51.454;6.736;2022-09-09T05:37:59;16.40;99.90
5352;DHT22;2698;51.454;6.736;2022-09-09T05:40:28;16.40;99.90
5352;DHT22;2698;51.454;6.736;2022-09-09T05:42:59;16.40;99.90
5352;DHT22;2698;51.454;6.736;2022-09-09T05:45:27;16.50;99.90
5352;DHT22;2698;51.454;6.736;2022-09-09T05:47:53;16.50;99.90
5352;DHT22;2698;51.454;6.736;2022-09-09T05:50:20;16.50;99.90
5352;DHT22;2698;51.454;6.736;2022-09-09T05:52:47;16.50;99.90
5352;DHT22;2698;51.454;6.736;2022-09-09T05:55:15;16.60;99.90
5352;DHT22;2698;51.454;6.736;2022-09-09T05:57:48;16.60;99.90
5352;DHT22;2698;51.454;6.736;2022-09-09T06:00:15;16.80;99.90
5352;DHT22;2698;51.454;6.736;2022-09-09T06:02:42;16.80;99.90
5352;DHT22;2698;51.454;6.736;2022-09-09T06:05:09;16.90;99.90
5352;DHT22;2698;51.454;6.736;2022-09-09T06:07:37;16.90;99.90
5352;DHT22;2698;51.454;6.736;2022-09-09T06:10:08;16.90;99.90
5352;DHT22;2698;51.454;6.736;2022-09-09T06:12:34;17.00;99.90
5352;DHT22;2698;51.454;6.736;2022-09-09T06:15:03;17.10;99.90
5352;DHT22;2698;51.454;6.736;2022-09-09T06:17:30;17.10;99.90
5352;DHT22;2698;51.454;6.736;2022-09-09T06:19:57;17.20;99.90
5352;DHT22;2698;51.454;6.736;2022-09-09T06:22:24;17.20;99.90
5352;DHT22;2698;51.454;6.736;2022-09-09T06:24:51;17.20;99.90
5352;DHT22;2698;51.454;6.736;2022-09-09T06:27:19;17.20;99.90
5352;DHT22;2698;51.454;6.736;2022-09-09T06:29:46;17.20;99.90
5352;DHT22;2698;51.454;6.736;2022-09-09T06:32:14;17.30;99.90
5352;DHT22;2698;51.454;6.736;2022-09-09T06:34:41;17.60;99.90
5352;DHT22;2698;51.454;6.736;2022-09-09T06:37:08;17.80;99.90
5352;DHT22;2698;51.454;6.736;2022-09-09T06:39:35;18.10;99.90
5352;DHT22;2698;51.454;6.736;2022-09-09T06:42:02;18.10;99.90
5352;DHT22;2698;51.454;6.736;2022-09-09T06:44:29;18.10;99.90
5352;DHT22;2698;51.454;6.736;2022-09-09T06:46:59;18.00;99.90
5352;DHT22;2698;51.454;6.736;2022-09-09T06:49:27;17.90;99.90
5352;DHT22;2698;51.454;6.736;2022-09-09T06:51:54;18.00;99.90
5352;DHT22;2698;51.454;6.736;2022-09-09T06:54:20;18.20;99.90
5352;DHT22;2698;51.454;6.736;2022-09-09T06:56:48;18.20;99.90
5352;DHT22;2698;51.454;6.736;2022-09-09T06:59:15;18.20;99.90
5352;DHT22;2698;51.454;6.736;2022-09-09T07:01:43;18.10;99.90
5352;DHT22;2698;51.454;6.736;2022-09-09T07:04:10;18.10;99.90
5352;DHT22;2698;51.454;6.736;2022-09-09T07:06:41;17.90;99.90
5352;DHT22;2698;51.454;6.736;2022-09-09T07:09:10;18.00;99.90
5352;DHT22;2698;51.454;6.736;2022-09-09T07:11:39;17.90;99.90
5352;DHT22;2698;51.454;6.736;2022-09-09T07:14:07;17.80;99.90
5352;DHT22;2698;51.454;6.736;2022-09-09T07:16:34;17.80;99.90
5352;DHT22;2698;51.454;6.736;2022-09-09T07:19:03;18.10;99.90
5352;DHT22;2698;51.454;6.736;2022-09-09T07:21:31;18.60;99.90
5352;DHT22;2698;51.454;6.736;2022-09-09T07:24:00;18.90;99.90
5352;DHT22;2698;51.454;6.736;2022-09-09T07:26:29;19.00;99.90
5352;DHT22;2698;51.454;6.736;2022-09-09T07:28:56;19.10;99.90
5352;DHT22;2698;51.454;6.736;2022-09-09T07:31:25;18.90;99.90
5352;DHT22;2698;51.454;6.736;2022-09-09T07:33:53;19.00;99.90
5352;DHT22;2698;51.454;6.736;2022-09-09T07:36:21;18.90;99.90
5352;DHT22;2698;51.454;6.736;2022-09-09T07:38:50;18.90;99.90
5352;DHT22;2698;51.454;6.736;2022-09-09T07:41:21;19.10;99.90
5352;DHT22;2698;51.454;6.736;2022-09-09T07:43:49;19.00;99.90
5352;DHT22;2698;51.454;6.736;2022-09-09T07:46:18;19.10;99.90
5352;DHT22;2698;51.454;6.736;2022-09-09T07:48:46;18.90;99.90
5352;DHT22;2698;51.454;6.736;2022-09-09T07:51:18;18.90;99.90
5352;DHT22;2698;51.454;6.736;2022-09-09T07:53:45;18.80;99.90
5352;DHT22;2698;51.454;6.736;2022-09-09T07:56:14;18.90;99.90
5352;DHT22;2698;51.454;6.736;2022-09-09T07:58:45;19.10;99.90
5352;DHT22;2698;51.454;6.736;2022-09-09T08:01:14;19.20;99.90
5352;DHT22;2698;51.454;6.736;2022-09-09T08:03:43;19.50;99.90
5352;DHT22;2698;51.454;6.736;2022-09-09T08:06:11;19.80;99.90
5352;DHT22;2698;51.454;6.736;2022-09-09T08:08:40;19.60;99.90
5352;DHT22;2698;51.454;6.736;2022-09-09T08:11:10;19.80;99.90
5352;DHT22;2698;51.454;6.736;2022-09-09T08:13:38;19.90;99.90
5352;DHT22;2698;51.454;6.736;2022-09-09T08:16:09;19.90;99.90
5352;DHT22;2698;51.454;6.736;2022-09-09T08:18:37;20.30;99.90
5352;DHT22;2698;51.454;6.736;2022-09-09T08:21:09;20.30;99.90
5352;DHT22;2698;51.454;6.736;2022-09-09T08:23:37;20.40;99.90
5352;DHT22;2698;51.454;6.736;2022-09-09T08:26:06;20.50;99.90
5352;DHT22;2698;51.454;6.736;2022-09-09T08:28:34;20.60;99.90
5352;DHT22;2698;51.454;6.736;2022-09-09T08:31:11;20.20;99.90
5352;DHT22;2698;51.454;6.736;2022-09-09T08:33:39;20.10;99.90
5352;DHT22;2698;51.454;6.736;2022-09-09T08:36:08;20.00;99.90
5352;DHT22;2698;51.454;6.736;2022-09-09T08:38:36;20.30;99.90
5352;DHT22;2698;51.454;6.736;2022-09-09T08:41:31;20.10;99.90
5352;DHT22;2698;51.454;6.736;2022-09-09T08:44:04;20.30;99.90
5352;DHT22;2698;51.454;6.736;2022-09-09T08:46:41;20.50;99.90
5352;DHT22;2698;51.454;6.736;2022-09-09T08:49:21;20.50;99.90
5352;DHT22;2698;51.454;6.736;2022-09-09T08:51:50;20.60;99.90
5352;DHT22;2698;51.454;6.736;2022-09-09T08:54:17;20.50;99.90
5352;DHT22;2698;51.454;6.736;2022-09-09T08:56:44;20.50;99.90
5352;DHT22;2698;51.454;6.736;2022-09-09T08:59:14;20.50;99.90
5352;DHT22;2698;51.454;6.736;2022-09-09T09:02:07;20.60;99.90
5352;DHT22;2698;51.454;6.736;2022-09-09T09:05:01;20.40;99.90
5352;DHT22;2698;51.454;6.736;2022-09-09T09:07:42;20.10;99.90
5352;DHT22;2698;51.454;6.736;2022-09-09T09:10:19;20.00;99.90
5352;DHT22;2698;51.454;6.736;2022-09-09T09:12:47;19.90;99.90
5352;DHT22;2698;51.454;6.736;2022-09-09T09:15:19;20.00;99.90
5352;DHT22;2698;51.454;6.736;2022-09-09T09:17:48;19.80;99.90
5352;DHT22;2698;51.454;6.736;2022-09-09T09:20:17;19.70;99.90
5352;DHT22;2698;51.454;6.736;2022-09-09T09:22:48;19.70;99.90
5352;DHT22;2698;51.454;6.736;2022-09-09T09:25:18;19.80;99.90
5352;DHT22;2698;51.454;6.736;2022-09-09T09:27:52;20.00;99.90
5352;DHT22;2698;51.454;6.736;2022-09-09T09:30:26;20.00;99.90
5352;DHT22;2698;51.454;6.736;2022-09-09T09:32:56;19.80;99.90
5352;DHT22;2698;51.454;6.736;2022-09-09T09:35:24;19.60;99.90
5352;DHT22;2698;51.454;6.736;2022-09-09T09:37:52;19.60;99.90
5352;DHT22;2698;51.454;6.736;2022-09-09T09:40:20;19.60;99.90
5352;DHT22;2698;51.454;6.736;2022-09-09T09:42:49;19.60;99.90
5352;DHT22;2698;51.454;6.736;2022-09-09T09:45:25;19.60;99.90
5352;DHT22;2698;51.454;6.736;2022-09-09T09:47:59;19.70;99.90
5352;DHT22;2698;51.454;6.736;2022-09-09T09:50:28;19.80;99.90
5352;DHT22;2698;51.454;6.736;2022-09-09T09:52:56;19.90;99.90
5352;DHT22;2698;51.454;6.736;2022-09-09T09:55:23;20.00;99.90
5352;DHT22;2698;51.454;6.736;2022-09-09T09:57:51;20.00;99.90
5352;DHT22;2698;51.454;6.736;2022-09-09T10:00:22;19.90;99.90
5352;DHT22;2698;51.454;6.736;2022-09-09T10:02:50;20.10;99.90
5352;DHT22;2698;51.454;6.736;2022-09-09T10:05:21;20.50;99.90
5352;DHT22;2698;51.454;6.736;2022-09-09T10:08:01;20.90;99.90
5352;DHT22;2698;51.454;6.736;2022-09-09T10:10:44;21.00;99.90
5352;DHT22;2698;51.454;6.736;2022-09-09T10:13:19;20.90;99.90
5352;DHT22;2698;51.454;6.736;2022-09-09T10:15:57;20.30;99.90
5352;DHT22;2698;51.454;6.736;2022-09-09T10:18:40;20.60;99.90
5352;DHT22;2698;51.454;6.736;2022-09-09T10:21:20;20.60;99.90
5352;DHT22;2698;51.454;6.736;2022-09-09T10:24:12;20.50;99.90
5352;DHT22;2698;51.454;6.736;2022-09-09T10:26:46;20.50;99.90
5352;DHT22;2698;51.454;6.736;2022-09-09T10:29:40;20.30;99.90
5352;DHT22;2698;51.454;6.736;2022-09-09T10:32:27;20.20;99.90
5352;DHT22;2698;51.454;6.736;2022-09-09T10:35:02;20.00;99.90
5352;DHT22;2698;51.454;6.736;2022-09-09T10:37:44;19.90;99.90
5352;DHT22;2698;51.454;6.736;2022-09-09T10:40:23;20.00;99.90
5352;DHT22;2698;51.454;6.736;2022-09-09T10:42:55;19.90;99.90
5352;DHT22;2698;51.454;6.736;2022-09-09T10:45:28;19.80;99.90
5352;DHT22;2698;51.454;6.736;2022-09-09T10:48:15;19.90;99.90
5352;DHT22;2698;51.454;6.736;2022-09-09T10:50:51;19.80;99.90
5352;DHT22;2698;51.454;6.736;2022-09-09T10:53:34;19.80;99.90
5352;DHT22;2698;51.454;6.736;2022-09-09T10:56:06;19.80;99.90
5352;DHT22;2698;51.454;6.736;2022-09-09T10:58:39;19.80;99.90
5352;DHT22;2698;51.454;6.736;2022-09-09T11:01:13;19.90;99.90
5352;DHT22;2698;51.454;6.736;2022-09-09T11:03:43;20.10;99.90
5352;DHT22;2698;51.454;6.736;2022-09-09T11:06:15;20.40;99.90
5352;DHT22;2698;51.454;6.736;2022-09-09T11:08:46;20.70;99.90
5352;DHT22;2698;51.454;6.736;2022-09-09T11:11:18;20.80;99.90
5352;DHT22;2698;51.454;6.736;2022-09-09T11:13:49;20.60;99.90
5352;DHT22;2698;51.454;6.736;2022-09-09T11:16:25;20.50;99.90
5352;DHT22;2698;51.454;6.736;2022-09-09T11:18:58;20.50;99.90
5352;DHT22;2698;51.454;6.736;2022-09-09T11:21:30;20.40;99.90
5352;DHT22;2698;51.454;6.736;2022-09-09T11:24:02;20.50;99.90
5352;DHT22;2698;51.454;6.736;2022-09-09T11:26:35;20.70;99.90
5352;DHT22;2698;51.454;6.736;2022-09-09T11:29:22;20.70;99.90
5352;DHT22;2698;51.454;6.736;2022-09-09T11:32:03;20.80;99.90
5352;DHT22;2698;51.454;6.736;2022-09-09T11:34:42;20.80;99.90
5352;DHT22;2698;51.454;6.736;2022-09-09T11:37:43;21.00;99.90
5352;DHT22;2698;51.454;6.736;2022-09-09T11:40:22;21.20;99.90
5352;DHT22;2698;51.454;6.736;2022-09-09T11:43:01;21.20;99.90
5352;DHT22;2698;51.454;6.736;2022-09-09T11:45:31;21.00;99.90
5352;DHT22;2698;51.454;6.736;2022-09-09T11:48:00;21.00;99.90
5352;DHT22;2698;51.454;6.736;2022-09-09T11:50:35;21.00;99.90
5352;DHT22;2698;51.454;6.736;2022-09-09T11:56:07;20.70;99.90
5352;DHT22;2698;51.454;6.736;2022-09-09T11:58:38;20.70;99.90
5352;DHT22;2698;51.454;6.736;2022-09-09T12:01:39;20.70;99.90
5352;DHT22;2698;51.454;6.736;2022-09-09T12:04:30;21.00;99.90
5352;DHT22;2698;51.454;6.736;2022-09-09T12:07:00;21.20;99.90
5352;DHT22;2698;51.454;6.736;2022-09-09T12:09:33;21.20;99.90
5352;DHT22;2698;51.454;6.736;2022-09-09T12:12:22;21.00;99.90
5352;DHT22;2698;51.454;6.736;2022-09-09T12:15:01;20.80;99.90
5352;DHT22;2698;51.454;6.736;2022-09-09T12:17:30;20.70;99.90
5352;DHT22;2698;51.454;6.736;2022-09-09T12:20:12;20.70;99.90
5352;DHT22;2698;51.454;6.736;2022-09-09T12:25:40;20.90;99.90
5352;DHT22;2698;51.454;6.736;2022-09-09T12:28:17;21.10;99.90
5352;DHT22;2698;51.454;6.736;2022-09-09T12:30:49;21.00;99.90
5352;DHT22;2698;51.454;6.736;2022-09-09T12:33:19;20.90;99.90
5352;DHT22;2698;51.454;6.736;2022-09-09T12:35:51;20.00;99.90
5352;DHT22;2698;51.454;6.736;2022-09-09T12:38:25;19.50;99.90
5352;DHT22;2698;51.454;6.736;2022-09-09T12:40:55;19.40;99.90
5352;DHT22;2698;51.454;6.736;2022-09-09T12:43:26;19.50;99.90
5352;DHT22;2698;51.454;6.736;2022-09-09T12:45:56;19.60;99.90
5352;DHT22;2698;51.454;6.736;2022-09-09T12:48:31;19.50;99.90
5352;DHT22;2698;51.454;6.736;2022-09-09T12:50:59;19.20;99.90
5352;DHT22;2698;51.454;6.736;2022-09-09T12:53:29;19.00;99.90
5352;DHT22;2698;51.454;6.736;2022-09-09T12:56:00;19.20;99.90
5352;DHT22;2698;51.454;6.736;2022-09-09T12:58:30;19.30;99.90
5352;DHT22;2698;51.454;6.736;2022-09-09T13:00:59;19.30;99.90
5352;DHT22;2698;51.454;6.736;2022-09-09T13:03:26;19.20;99.90
5352;DHT22;2698;51.454;6.736;2022-09-09T13:05:58;19.20;99.90
5352;DHT22;2698;51.454;6.736;2022-09-09T13:08:25;19.00;99.90
5352;DHT22;2698;51.454;6.736;2022-09-09T13:10:54;18.80;99.90
5352;DHT22;2698;51.454;6.736;2022-09-09T13:13:27;18.80;99.90
5352;DHT22;2698;51.454;6.736;2022-09-09T13:15:58;18.70;99.90
5352;DHT22;2698;51.454;6.736;2022-09-09T13:18:28;18.70;99.90
5352;DHT22;2698;51.454;6.736;2022-09-09T13:20:56;18.60;99.90
5352;DHT22;2698;51.454;6.736;2022-09-09T13:23:27;18.60;99.90
5352;DHT22;2698;51.454;6.736;2022-09-09T13:25:56;18.90;99.90
5352;DHT22;2698;51.454;6.736;2022-09-09T13:28:25;19.30;99.90
5352;DHT22;2698;51.454;6.736;2022-09-09T13:31:00;19.60;99.90
5352;DHT22;2698;51.454;6.736;2022-09-09T13:33:32;20.00;99.90
5352;DHT22;2698;51.454;6.736;2022-09-09T13:36:01;20.10;99.90
5352;DHT22;2698;51.454;6.736;2022-09-09T13:38:32;19.90;99.90
5352;DHT22;2698;51.454;6.736;2022-09-09T13:41:01;19.80;99.90
5352;DHT22;2698;51.454;6.736;2022-09-09T13:43:31;19.70;99.90
5352;DHT22;2698;51.454;6.736;2022-09-09T13:46:03;19.60;99.90
5352;DHT22;2698;51.454;6.736;2022-09-09T13:48:30;19.70;99.90
5352;DHT22;2698;51.454;6.736;2022-09-09T13:51:00;20.00;99.90
5352;DHT22;2698;51.454;6.736;2022-09-09T13:53:27;19.90;99.90
5352;DHT22;2698;51.454;6.736;2022-09-09T13:55:54;20.10;99.90
5352;DHT22;2698;51.454;6.736;2022-09-09T13:58:22;20.30;99.90
5352;DHT22;2698;51.454;6.736;2022-09-09T14:00:51;20.30;99.90
5352;DHT22;2698;51.454;6.736;2022-09-09T14:03:19;20.40;99.90
5352;DHT22;2698;51.454;6.736;2022-09-09T14:05:46;20.40;99.90
5352;DHT22;2698;51.454;6.736;2022-09-09T14:08:21;20.50;99.90
5352;DHT22;2698;51.454;6.736;2022-09-09T14:10:49;20.50;99.90
5352;DHT22;2698;51.454;6.736;2022-09-09T14:13:15;20.40;99.90
5352;DHT22;2698;51.454;6.736;2022-09-09T14:15:42;20.30;99.90
5352;DHT22;2698;51.454;6.736;2022-09-09T14:18:11;20.30;99.90
5352;DHT22;2698;51.454;6.736;2022-09-09T14:20:40;20.10;99.90
5352;DHT22;2698;51.454;6.736;2022-09-09T14:23:10;20.20;99.90
5352;DHT22;2698;51.454;6.736;2022-09-09T14:25:40;20.30;99.90
5352;DHT22;2698;51.454;6.736;2022-09-09T14:28:09;20.50;99.90
5352;DHT22;2698;51.454;6.736;2022-09-09T14:30:37;20.30;99.90
5352;DHT22;2698;51.454;6.736;2022-09-09T14:33:04;20.30;99.90
5352;DHT22;2698;51.454;6.736;2022-09-09T14:35:31;20.20;99.90
5352;DHT22;2698;51.454;6.736;2022-09-09T14:38:00;20.10;99.90
5352;DHT22;2698;51.454;6.736;2022-09-09T14:40:28;19.60;99.90
5352;DHT22;2698;51.454;6.736;2022-09-09T14:42:54;19.00;99.90
5352;DHT22;2698;51.454;6.736;2022-09-09T14:45:22;18.30;99.90
5352;DHT22;2698;51.454;6.736;2022-09-09T14:47:50;17.70;99.90
5352;DHT22;2698;51.454;6.736;2022-09-09T14:50:17;17.40;99.90
5352;DHT22;2698;51.454;6.736;2022-09-09T14:52:44;17.10;99.90
5352;DHT22;2698;51.454;6.736;2022-09-09T14:55:13;16.90;99.90
5352;DHT22;2698;51.454;6.736;2022-09-09T14:57:40;16.70;99.90
5352;DHT22;2698;51.454;6.736;2022-09-09T15:00:08;16.70;99.90
5352;DHT22;2698;51.454;6.736;2022-09-09T15:02:35;16.70;99.90
5352;DHT22;2698;51.454;6.736;2022-09-09T15:05:02;16.70;99.90
5352;DHT22;2698;51.454;6.736;2022-09-09T15:07:30;16.70;99.90
5352;DHT22;2698;51.454;6.736;2022-09-09T15:09:57;16.70;99.90
5352;DHT22;2698;51.454;6.736;2022-09-09T15:12:25;16.70;99.90
5352;DHT22;2698;51.454;6.736;2022-09-09T15:14:52;16.70;99.90
5352;DHT22;2698;51.454;6.736;2022-09-09T15:17:20;16.70;99.90
5352;DHT22;2698;51.454;6.736;2022-09-09T15:19:46;16.50;99.90
5352;DHT22;2698;51.454;6.736;2022-09-09T15:22:15;16.50;99.90
5352;DHT22;2698;51.454;6.736;2022-09-09T15:24:42;16.60;99.90
5352;DHT22;2698;51.454;6.736;2022-09-09T15:27:09;16.60;99.90
5352;DHT22;2698;51.454;6.736;2022-09-09T15:29:37;16.60;99.90
5352;DHT22;2698;51.454;6.736;2022-09-09T15:32:04;16.90;99.90
5352;DHT22;2698;51.454;6.736;2022-09-09T15:34:31;17.10;99.90
5352;DHT22;2698;51.454;6.736;2022-09-09T15:36:58;17.20;99.90
5352;DHT22;2698;51.454;6.736;2022-09-09T15:39:25;17.40;99.90
5352;DHT22;2698;51.454;6.736;2022-09-09T15:41:52;17.60;99.90
5352;DHT22;2698;51.454;6.736;2022-09-09T15:44:19;17.60;99.90
5352;DHT22;2698;51.454;6.736;2022-09-09T15:46:49;17.90;99.90
5352;DHT22;2698;51.454;6.736;2022-09-09T15:49:17;18.00;99.90
5352;DHT22;2698;51.454;6.736;2022-09-09T15:51:46;18.00;99.90
5352;DHT22;2698;51.454;6.736;2022-09-09T15:54:14;18.20;99.90
5352;DHT22;2698;51.454;6.736;2022-09-09T15:56:42;18.20;99.90
5352;DHT22;2698;51.454;6.736;2022-09-09T15:59:10;18.20;99.90
5352;DHT22;2698;51.454;6.736;2022-09-09T16:01:37;18.30;99.90
5352;DHT22;2698;51.454;6.736;2022-09-09T16:04:06;18.30;99.90
5352;DHT22;2698;51.454;6.736;2022-09-09T16:06:33;18.30;99.90
5352;DHT22;2698;51.454;6.736;2022-09-09T16:09:01;18.20;99.90
5352;DHT22;2698;51.454;6.736;2022-09-09T16:11:31;18.10;99.90
5352;DHT22;2698;51.454;6.736;2022-09-09T16:13:59;18.20;99.90
5352;DHT22;2698;51.454;6.736;2022-09-09T16:16:27;18.10;99.90
5352;DHT22;2698;51.454;6.736;2022-09-09T16:18:57;18.10;99.90
5352;DHT22;2698;51.454;6.736;2022-09-09T16:21:27;17.90;99.90
5352;DHT22;2698;51.454;6.736;2022-09-09T16:23:55;17.90;99.90
5352;DHT22;2698;51.454;6.736;2022-09-09T16:26:22;17.80;99.90
5352;DHT22;2698;51.454;6.736;2022-09-09T16:28:49;17.80;99.90
5352;DHT22;2698;51.454;6.736;2022-09-09T16:31:18;17.80;99.90
5352;DHT22;2698;51.454;6.736;2022-09-09T16:33:46;17.80;99.90